createdAt,value
2019-04-30T00:01:17.101Z,99.90
2019-04-30T00:03:50.457Z,99.90
2019-04-30T00:06:22.173Z,99.90
2019-04-30T00:08:55.404Z,99.90
2019-04-30T00:11:27.956Z,99.90
2019-04-30T00:13:59.436Z,99.90
2019-04-30T00:16:35.567Z,99.90
2019-04-30T00:19:25.886Z,99.90
2019-04-30T00:22:00.505Z,99.90
2019-04-30T00:24:32.526Z,99.90
2019-04-30T00:27:05.711Z,99.90
2019-04-30T00:29:38.223Z,99.90
2019-04-30T00:32:11.280Z,99.90
2019-04-30T00:34:45.511Z,99.90
2019-04-30T00:37:21.131Z,99.90
2019-04-30T00:39:53.135Z,99.90
2019-04-30T00:42:28.102Z,99.90
2019-04-30T00:47:35.239Z,99.90
2019-04-30T00:50:08.328Z,99.90
2019-04-30T00:52:42.307Z,99.90
2019-04-30T00:55:16.130Z,99.90
2019-04-30T00:57:48.894Z,99.90
2019-04-30T01:00:28.098Z,99.90
2019-04-30T01:03:11.381Z,99.90
2019-04-30T01:05:46.461Z,99.90
2019-04-30T01:08:15.922Z,99.90
2019-04-30T01:10:47.513Z,99.90
2019-04-30T01:13:20.931Z,99.90
2019-04-30T01:15:52.991Z,99.90
2019-04-30T01:18:28.543Z,99.90
2019-04-30T01:21:03.030Z,99.90
2019-04-30T01:23:34.241Z,99.90
2019-04-30T01:26:08.776Z,99.90
2019-04-30T01:28:40.807Z,99.90
2019-04-30T01:31:14.072Z,99.90
2019-04-30T01:33:46.459Z,99.90
2019-04-30T01:36:19.277Z,99.90
2019-04-30T01:38:52.448Z,99.90
2019-04-30T01:41:27.298Z,99.90
2019-04-30T01:44:03.718Z,99.90
2019-04-30T01:46:34.635Z,99.90
2019-04-30T01:49:06.410Z,99.90
2019-04-30T01:51:39.379Z,99.90
2019-04-30T01:54:13.783Z,99.90
2019-04-30T01:56:59.367Z,99.90
2019-04-30T01:59:52.508Z,99.90
2019-04-30T02:02:26.137Z,99.90
2019-04-30T02:04:59.147Z,99.90
2019-04-30T02:07:32.062Z,99.90
2019-04-30T02:10:04.402Z,99.90
2019-04-30T02:12:35.836Z,99.90
2019-04-30T02:15:09.370Z,99.90
2019-04-30T02:17:41.241Z,99.90
2019-04-30T02:20:13.241Z,99.90
2019-04-30T02:22:45.038Z,99.90
2019-04-30T02:25:19.493Z,99.90
2019-04-30T02:27:51.909Z,99.90
2019-04-30T02:30:23.860Z,99.90
2019-04-30T02:32:56.057Z,99.90
2019-04-30T02:35:46.268Z,99.90
2019-04-30T02:38:30.103Z,99.90
2019-04-30T02:41:03.460Z,99.90
2019-04-30T02:43:36.253Z,99.90
2019-04-30T02:46:09.781Z,99.90
2019-04-30T02:48:43.600Z,99.90
2019-04-30T02:51:19.996Z,99.90
2019-04-30T02:54:24.154Z,99.90
2019-04-30T02:57:20.455Z,99.90
2019-04-30T03:00:25.513Z,99.90
2019-04-30T03:03:00.080Z,99.90
2019-04-30T03:05:31.663Z,99.90
2019-04-30T03:08:04.143Z,99.90
2019-04-30T03:10:36.746Z,99.90
2019-04-30T03:13:10.349Z,99.90
2019-04-30T03:15:41.722Z,99.90
2019-04-30T03:18:22.976Z,99.90
2019-04-30T03:21:04.285Z,99.90
2019-04-30T03:23:39.033Z,99.90
2019-04-30T03:26:12.941Z,99.90
2019-04-30T03:28:44.418Z,99.90
2019-04-30T03:31:16.189Z,99.90
2019-04-30T03:33:51.990Z,99.90
2019-04-30T03:36:22.190Z,99.90
2019-04-30T03:38:54.680Z,99.90
2019-04-30T03:41:30.143Z,99.90
2019-04-30T03:44:17.301Z,99.90
2019-04-30T03:46:36.085Z,99.90
2019-04-30T03:49:10.603Z,99.90
2019-04-30T03:51:43.252Z,99.90
2019-04-30T03:54:15.650Z,99.90
2019-04-30T03:56:50.209Z,99.90
2019-04-30T03:59:20.712Z,99.90
2019-04-30T04:02:12.761Z,99.90
2019-04-30T04:04:54.414Z,99.90
2019-04-30T04:07:35.221Z,99.90
2019-04-30T04:10:35.191Z,99.90
2019-04-30T04:13:07.116Z,99.90
2019-04-30T04:15:39.950Z,99.90
2019-04-30T04:18:12.465Z,99.90
2019-04-30T04:20:44.484Z,99.90
2019-04-30T04:23:19.271Z,99.90
2019-04-30T04:25:52.346Z,99.90
2019-04-30T04:28:24.836Z,99.90
2019-04-30T04:31:00.174Z,99.90
2019-04-30T04:33:31.405Z,99.90
2019-04-30T04:36:04.530Z,99.90
2019-04-30T04:38:40.099Z,99.90
2019-04-30T04:41:12.338Z,99.90
2019-04-30T04:43:45.535Z,99.90
2019-04-30T04:46:20.596Z,99.90
2019-04-30T04:48:52.589Z,99.90
2019-04-30T04:51:36.622Z,99.90
2019-04-30T04:54:00.183Z,99.90
2019-04-30T04:56:32.945Z,99.90
2019-04-30T04:59:05.758Z,99.90
2019-04-30T05:01:38.761Z,99.90
2019-04-30T05:04:11.900Z,99.90
2019-04-30T05:06:44.335Z,99.90
2019-04-30T05:09:15.821Z,99.90
2019-04-30T05:11:48.757Z,99.90
2019-04-30T05:14:22.084Z,99.90
2019-04-30T05:16:56.354Z,99.90
2019-04-30T05:19:48.712Z,99.90
2019-04-30T05:22:23.075Z,99.90
2019-04-30T05:24:55.603Z,99.90
2019-04-30T05:27:30.275Z,99.90
2019-04-30T05:30:03.996Z,99.90
2019-04-30T05:32:38.936Z,99.90
2019-04-30T05:35:11.930Z,99.90
2019-04-30T05:37:44.925Z,99.90
2019-04-30T05:40:18.840Z,99.90
2019-04-30T05:42:52.110Z,99.90
2019-04-30T05:45:24.966Z,99.90
2019-04-30T05:47:56.370Z,99.90
2019-04-30T05:50:29.621Z,99.90
2019-04-30T05:53:03.266Z,99.90
2019-04-30T05:55:37.151Z,99.90
2019-04-30T05:58:09.477Z,99.90
2019-04-30T06:00:43.168Z,99.90
2019-04-30T06:03:25.237Z,99.90
2019-04-30T06:05:49.353Z,99.90
2019-04-30T06:08:29.198Z,99.90
2019-04-30T06:11:31.932Z,99.90
2019-04-30T06:14:48.633Z,99.90
2019-04-30T06:17:19.565Z,99.90
2019-04-30T06:19:51.727Z,99.90
2019-04-30T06:22:26.460Z,99.90
2019-04-30T06:25:00.164Z,99.90
2019-04-30T06:27:34.399Z,99.00
2019-04-30T06:30:11.813Z,99.90
2019-04-30T06:32:41.826Z,97.60
2019-04-30T06:35:14.366Z,95.40
2019-04-30T06:37:48.838Z,92.60
2019-04-30T06:40:22.863Z,91.30
2019-04-30T06:42:55.567Z,93.20
2019-04-30T06:45:29.056Z,93.90
2019-04-30T06:48:04.481Z,89.80
2019-04-30T06:50:39.178Z,93.00
2019-04-30T06:53:13.110Z,92.00
2019-04-30T06:58:34.422Z,82.90
2019-04-30T07:01:09.527Z,85.20
2019-04-30T07:03:42.748Z,83.90
2019-04-30T07:06:29.456Z,87.70
2019-04-30T07:09:13.792Z,82.10
2019-04-30T07:11:53.024Z,81.20
2019-04-30T07:14:26.516Z,81.10
2019-04-30T07:16:59.407Z,73.90
2019-04-30T07:19:50.205Z,79.80
2019-04-30T07:22:09.075Z,80.00
2019-04-30T07:24:43.184Z,73.60
2019-04-30T07:27:21.771Z,67.10
2019-04-30T07:29:50.370Z,63.20
2019-04-30T07:32:23.309Z,68.00
2019-04-30T07:34:55.574Z,69.90
2019-04-30T07:37:29.332Z,59.10
2019-04-30T07:40:01.535Z,61.10
2019-04-30T07:42:39.752Z,60.10
2019-04-30T07:45:09.998Z,60.80
2019-04-30T07:47:41.759Z,59.70
2019-04-30T07:50:14.597Z,59.90
2019-04-30T07:52:59.891Z,55.90
2019-04-30T07:55:21.566Z,54.80
2019-04-30T07:57:53.723Z,56.90
2019-04-30T08:00:30.982Z,56.90
2019-04-30T08:03:30.776Z,57.90
2019-04-30T08:06:05.301Z,59.20
2019-04-30T08:08:40.827Z,59.60
2019-04-30T08:11:23.011Z,58.10
2019-04-30T08:13:49.270Z,57.50
2019-04-30T08:16:22.410Z,58.50
2019-04-30T08:18:54.347Z,61.30
2019-04-30T08:21:28.919Z,57.60
2019-04-30T08:24:01.081Z,58.20
2019-04-30T08:26:35.472Z,56.10
2019-04-30T08:29:09.562Z,56.30
2019-04-30T08:31:43.366Z,58.10
2019-04-30T08:34:19.974Z,55.60
2019-04-30T08:36:56.868Z,55.80
2019-04-30T08:39:32.936Z,56.10
2019-04-30T08:42:08.863Z,55.40
2019-04-30T08:44:44.821Z,53.10
2019-04-30T08:47:20.911Z,50.80
2019-04-30T08:50:10.217Z,50.70
2019-04-30T08:52:43.242Z,49.30
2019-04-30T08:55:17.073Z,49.30
2019-04-30T08:57:51.115Z,48.50
2019-04-30T09:00:25.070Z,47.50
2019-04-30T09:02:59.336Z,48.20
2019-04-30T09:06:09.389Z,50.40
2019-04-30T09:08:44.066Z,49.50
2019-04-30T09:11:25.710Z,50.90
2019-04-30T09:13:52.007Z,46.00
2019-04-30T09:16:25.199Z,46.80
2019-04-30T09:18:59.507Z,46.80
2019-04-30T09:21:33.227Z,46.90
2019-04-30T09:24:09.401Z,44.70
2019-04-30T09:26:41.571Z,44.60
2019-04-30T09:29:14.655Z,45.00
2019-04-30T09:31:49.333Z,42.80
2019-04-30T09:34:21.926Z,44.20
2019-04-30T09:36:54.406Z,42.20
2019-04-30T09:39:29.876Z,43.80
2019-04-30T09:42:02.942Z,43.70
2019-04-30T09:44:39.005Z,43.20
2019-04-30T09:47:11.259Z,43.30
2019-04-30T09:49:44.830Z,37.50
2019-04-30T09:52:19.281Z,40.30
2019-04-30T09:54:52.902Z,39.60
2019-04-30T09:57:26.483Z,38.90
2019-04-30T10:00:00.593Z,37.50
2019-04-30T10:02:35.876Z,38.20
2019-04-30T10:05:13.656Z,39.60
2019-04-30T10:07:49.300Z,39.20
2019-04-30T10:10:28.926Z,36.50
2019-04-30T10:13:04.323Z,36.60
2019-04-30T10:15:55.875Z,37.70
2019-04-30T10:18:28.529Z,35.20
2019-04-30T10:21:01.615Z,34.80
2019-04-30T10:23:33.527Z,36.00
2019-04-30T10:26:06.809Z,36.70
2019-04-30T10:28:42.496Z,35.10
2019-04-30T10:31:16.515Z,34.00
2019-04-30T10:33:49.843Z,33.80
2019-04-30T10:36:23.940Z,32.40
2019-04-30T10:38:55.609Z,33.80
2019-04-30T10:41:29.194Z,39.00
2019-04-30T10:44:02.331Z,40.70
2019-04-30T10:46:35.233Z,39.80
2019-04-30T10:49:09.066Z,41.00
2019-04-30T10:51:42.684Z,40.30
2019-04-30T10:54:24.071Z,41.40
2019-04-30T10:56:51.959Z,41.40
2019-04-30T10:59:24.559Z,41.60
2019-04-30T11:01:59.070Z,44.10
2019-04-30T11:04:30.967Z,42.40
2019-04-30T11:07:05.165Z,43.60
2019-04-30T11:09:39.586Z,43.30
2019-04-30T11:12:12.981Z,42.30
2019-04-30T11:14:45.490Z,43.80
2019-04-30T11:17:19.485Z,43.40
2019-04-30T11:19:51.775Z,42.70
2019-04-30T11:22:24.993Z,42.90
2019-04-30T11:25:02.401Z,42.90
2019-04-30T11:27:34.390Z,43.20
2019-04-30T11:30:20.749Z,43.50
2019-04-30T11:32:43.019Z,42.50
2019-04-30T11:35:18.753Z,43.80
2019-04-30T11:37:51.712Z,42.80
2019-04-30T11:40:37.125Z,43.90
2019-04-30T11:43:07.740Z,43.70
2019-04-30T11:46:09.839Z,43.40
2019-04-30T11:48:43.071Z,43.90
2019-04-30T11:51:15.499Z,45.00
2019-04-30T11:53:53.083Z,45.80
2019-04-30T11:56:25.195Z,45.00
2019-04-30T11:58:58.883Z,44.40
2019-04-30T12:01:33.078Z,43.50
2019-04-30T12:04:06.230Z,44.40
2019-04-30T12:06:39.785Z,44.60
2019-04-30T12:09:28.519Z,44.40
2019-04-30T12:12:01.231Z,44.60
2019-04-30T12:14:35.363Z,44.90
2019-04-30T12:17:19.007Z,44.50
2019-04-30T12:19:53.224Z,44.00
2019-04-30T12:22:26.469Z,43.40
2019-04-30T12:25:03.284Z,45.30
2019-04-30T12:27:35.332Z,44.20
2019-04-30T12:30:11.584Z,44.30
2019-04-30T12:32:45.114Z,45.00
2019-04-30T12:35:19.002Z,44.60
2019-04-30T12:37:52.477Z,45.80
2019-04-30T12:40:29.255Z,44.80
2019-04-30T12:43:00.644Z,44.90
2019-04-30T12:45:34.358Z,44.80
2019-04-30T12:48:26.309Z,45.20
2019-04-30T12:51:45.229Z,47.70
2019-04-30T12:54:32.020Z,47.20
2019-04-30T12:57:23.469Z,47.90
2019-04-30T13:00:00.400Z,48.50
2019-04-30T13:02:34.145Z,48.10
2019-04-30T13:05:11.795Z,48.70
2019-04-30T13:07:50.989Z,47.10
2019-04-30T13:10:27.564Z,47.00
2019-04-30T13:13:03.192Z,45.50
2019-04-30T13:15:37.594Z,43.60
2019-04-30T13:18:14.288Z,43.70
2019-04-30T13:20:49.034Z,44.60
2019-04-30T13:23:24.563Z,44.60
2019-04-30T13:26:01.011Z,44.70
2019-04-30T13:28:37.636Z,43.90
2019-04-30T13:31:11.519Z,44.80
2019-04-30T13:33:51.264Z,43.90
2019-04-30T13:36:25.409Z,44.40
2019-04-30T13:39:12.364Z,44.40
2019-04-30T13:42:17.579Z,45.10
2019-04-30T13:44:49.431Z,44.60
2019-04-30T13:47:22.663Z,45.30
2019-04-30T13:49:55.639Z,45.00
2019-04-30T13:52:30.874Z,43.70
2019-04-30T13:55:03.741Z,44.80
2019-04-30T13:57:38.323Z,44.50
2019-04-30T14:00:14.703Z,44.70
2019-04-30T14:02:53.592Z,44.80
2019-04-30T14:05:26.530Z,45.10
2019-04-30T14:08:20.779Z,44.30
2019-04-30T14:10:56.262Z,44.90
2019-04-30T14:13:29.085Z,44.50
2019-04-30T14:16:02.019Z,44.50
2019-04-30T14:18:35.930Z,44.10
2019-04-30T14:21:11.519Z,43.80
2019-04-30T14:23:46.936Z,42.80
2019-04-30T14:26:20.613Z,44.00
2019-04-30T14:28:53.488Z,43.90
2019-04-30T14:31:28.911Z,42.10
2019-04-30T14:34:02.091Z,40.60
2019-04-30T14:36:36.036Z,40.80
2019-04-30T14:39:14.512Z,40.50
2019-04-30T14:41:48.041Z,40.20
2019-04-30T14:44:24.166Z,38.80
2019-04-30T14:47:20.824Z,38.50
2019-04-30T14:50:16.098Z,38.30
2019-04-30T14:53:19.391Z,38.80
2019-04-30T14:56:11.701Z,39.00
2019-04-30T14:59:02.353Z,38.60
2019-04-30T15:02:02.820Z,38.50
2019-04-30T15:04:36.232Z,39.20
2019-04-30T15:07:09.712Z,40.00
2019-04-30T15:09:43.281Z,40.90
2019-04-30T15:12:16.319Z,40.70
2019-04-30T15:14:50.256Z,40.70
2019-04-30T15:17:24.631Z,41.40
2019-04-30T15:19:58.799Z,40.80
2019-04-30T15:22:30.645Z,41.20
2019-04-30T15:25:04.297Z,39.90
2019-04-30T15:27:45.313Z,40.30
2019-04-30T15:30:12.551Z,41.00
2019-04-30T15:32:46.807Z,40.90
2019-04-30T15:35:20.388Z,40.60
2019-04-30T15:37:54.957Z,40.00
2019-04-30T15:40:28.874Z,40.40
2019-04-30T15:43:03.975Z,40.40
2019-04-30T15:45:39.170Z,40.40
2019-04-30T15:48:11.975Z,41.10
2019-04-30T15:50:45.087Z,42.30
2019-04-30T15:53:19.348Z,42.00
2019-04-30T15:55:52.455Z,42.50
2019-04-30T15:58:26.719Z,42.50
2019-04-30T16:01:00.694Z,42.90
2019-04-30T16:03:43.062Z,43.20
2019-04-30T16:06:18.571Z,43.40
2019-04-30T16:08:56.640Z,45.60
2019-04-30T16:11:49.201Z,49.80
2019-04-30T16:14:29.559Z,52.40
2019-04-30T16:17:20.673Z,54.30
2019-04-30T16:19:52.795Z,55.40
2019-04-30T16:22:26.516Z,56.10
2019-04-30T16:25:00.714Z,56.90
2019-04-30T16:27:33.843Z,57.60
2019-04-30T16:30:09.521Z,57.80
2019-04-30T16:32:44.267Z,58.50
2019-04-30T16:35:19.658Z,59.00
2019-04-30T16:37:52.565Z,59.20
2019-04-30T16:40:24.403Z,60.00
2019-04-30T16:42:59.459Z,60.80
2019-04-30T16:45:32.290Z,60.70
2019-04-30T16:48:05.771Z,61.70
2019-04-30T16:50:39.645Z,61.90
2019-04-30T16:53:14.920Z,62.60
2019-04-30T16:55:50.649Z,63.60
2019-04-30T16:58:23.916Z,64.70
2019-04-30T17:00:59.365Z,65.50
2019-04-30T17:03:38.875Z,66.90
2019-04-30T17:06:17.059Z,67.50
2019-04-30T17:08:58.563Z,68.40
2019-04-30T17:11:49.094Z,69.50
2019-04-30T17:14:22.947Z,71.50
2019-04-30T17:16:56.796Z,71.50
2019-04-30T17:19:31.525Z,70.50
2019-04-30T17:22:04.439Z,71.00
2019-04-30T17:24:39.358Z,71.60
2019-04-30T17:27:19.266Z,71.50
2019-04-30T17:29:48.307Z,73.60
2019-04-30T17:32:21.678Z,73.50
2019-04-30T17:34:54.544Z,74.00
2019-04-30T17:37:28.046Z,73.30
2019-04-30T17:40:00.523Z,73.00
2019-04-30T17:42:37.180Z,72.90
2019-04-30T17:45:10.813Z,71.70
2019-04-30T17:47:44.525Z,71.20
2019-04-30T17:50:18.870Z,70.00
2019-04-30T17:52:52.977Z,72.60
2019-04-30T17:55:25.067Z,73.20
2019-04-30T17:57:58.650Z,72.90
2019-04-30T18:00:34.718Z,72.20
2019-04-30T18:03:11.026Z,70.70
2019-04-30T18:05:43.595Z,70.60
2019-04-30T18:08:17.738Z,69.20
2019-04-30T18:10:51.547Z,67.90
2019-04-30T18:13:24.844Z,65.80
2019-04-30T18:16:00.543Z,67.00
2019-04-30T18:18:40.643Z,66.70
2019-04-30T18:21:38.369Z,67.50
2019-04-30T18:24:36.157Z,67.10
2019-04-30T18:27:20.979Z,67.90
2019-04-30T18:29:54.035Z,66.40
2019-04-30T18:32:30.763Z,66.70
2019-04-30T18:35:04.758Z,67.00
2019-04-30T18:37:38.794Z,67.40
2019-04-30T18:40:13.580Z,68.50
2019-04-30T18:42:51.225Z,68.80
2019-04-30T18:45:35.946Z,69.30
2019-04-30T18:48:12.524Z,69.50
2019-04-30T18:50:49.801Z,70.30
2019-04-30T18:53:28.591Z,71.90
2019-04-30T18:56:01.211Z,71.70
2019-04-30T18:58:40.663Z,72.50
2019-04-30T19:01:13.028Z,71.80
2019-04-30T19:03:44.680Z,72.20
2019-04-30T19:06:26.267Z,72.20
2019-04-30T19:09:16.781Z,72.70
2019-04-30T19:12:08.539Z,72.60
2019-04-30T19:15:10.826Z,73.10
2019-04-30T19:18:04.368Z,72.40
2019-04-30T19:20:45.436Z,70.60
2019-04-30T19:23:19.653Z,70.30
2019-04-30T19:26:11.525Z,70.70
2019-04-30T19:28:44.724Z,70.60
2019-04-30T19:31:19.931Z,70.70
2019-04-30T19:33:51.521Z,71.60
2019-04-30T19:36:34.979Z,71.50
2019-04-30T19:39:00.500Z,73.40
2019-04-30T19:41:38.602Z,72.10
2019-04-30T19:44:12.118Z,74.00
2019-04-30T19:46:48.315Z,74.10
2019-04-30T19:49:21.945Z,72.70
2019-04-30T19:52:07.539Z,73.00
2019-04-30T19:54:30.226Z,75.20
2019-04-30T19:57:04.224Z,76.10
2019-04-30T19:59:39.245Z,76.70
2019-04-30T20:02:13.515Z,78.60
2019-04-30T20:04:47.862Z,80.70
2019-04-30T20:07:21.746Z,82.10
2019-04-30T20:10:02.798Z,83.20
2019-04-30T20:12:30.078Z,87.40
2019-04-30T20:15:16.251Z,90.60
2019-04-30T20:17:38.560Z,92.40
2019-04-30T20:20:12.371Z,93.00
2019-04-30T20:22:51.955Z,94.30
2019-04-30T20:25:24.136Z,94.20
2019-04-30T20:27:59.425Z,95.70
2019-04-30T20:30:34.822Z,98.70
2019-04-30T20:33:10.116Z,99.90
2019-04-30T20:35:43.175Z,99.90
2019-04-30T20:38:34.666Z,99.40
2019-04-30T20:41:09.200Z,99.90
2019-04-30T20:43:43.527Z,99.90
2019-04-30T20:46:29.125Z,99.90
2019-04-30T20:48:52.699Z,99.90
2019-04-30T20:51:25.871Z,99.90
2019-04-30T20:53:59.876Z,99.90
2019-04-30T20:56:32.768Z,99.90
2019-04-30T20:59:10.086Z,99.90
2019-04-30T21:01:42.207Z,99.90
2019-04-30T21:04:15.706Z,99.90
2019-04-30T21:06:50.406Z,99.90
2019-04-30T21:09:23.875Z,99.90
2019-04-30T21:11:58.789Z,99.90
2019-04-30T21:14:32.356Z,99.90
2019-04-30T21:17:04.986Z,99.90
2019-04-30T21:19:37.696Z,99.90
2019-04-30T21:22:10.043Z,99.90
2019-04-30T21:24:43.580Z,99.90
2019-04-30T21:27:16.002Z,99.90
2019-04-30T21:29:49.926Z,99.90
2019-04-30T21:32:44.531Z,99.90
2019-04-30T21:35:50.696Z,99.90
2019-04-30T21:38:25.126Z,99.90
2019-04-30T21:41:01.032Z,99.90
2019-04-30T21:43:33.742Z,99.90
2019-04-30T21:46:09.380Z,99.90
2019-04-30T21:48:43.478Z,99.90
2019-04-30T21:51:19.123Z,99.90
2019-04-30T21:53:51.844Z,99.90
2019-04-30T21:56:25.089Z,99.90
2019-04-30T21:58:58.594Z,99.90
2019-04-30T22:01:30.859Z,99.90
2019-04-30T22:04:05.320Z,99.90
2019-04-30T22:06:39.357Z,99.90
2019-04-30T22:09:12.800Z,99.90
2019-04-30T22:12:06.089Z,99.90
2019-04-30T22:14:40.061Z,99.90
2019-04-30T22:17:13.087Z,99.90
2019-04-30T22:19:45.891Z,99.90
2019-04-30T22:22:19.321Z,99.90
2019-04-30T22:24:52.127Z,99.90
2019-04-30T22:27:26.266Z,99.90
2019-04-30T22:29:59.351Z,99.90
2019-04-30T22:32:33.928Z,99.90
2019-04-30T22:35:26.362Z,99.90
2019-04-30T22:38:01.912Z,99.90
2019-04-30T22:40:35.238Z,99.90
2019-04-30T22:43:09.758Z,99.90
2019-04-30T22:45:49.855Z,99.90
2019-04-30T22:48:22.202Z,99.90
2019-04-30T22:50:55.191Z,99.90
2019-04-30T22:53:28.388Z,99.90
2019-04-30T22:56:02.255Z,99.90
2019-04-30T22:58:35.552Z,99.90
2019-04-30T23:01:21.984Z,99.90
2019-04-30T23:03:57.109Z,99.90
2019-04-30T23:06:29.677Z,99.90
2019-04-30T23:09:02.430Z,99.90
2019-04-30T23:11:37.255Z,99.90
2019-04-30T23:14:11.367Z,99.90
2019-04-30T23:16:45.760Z,99.90
2019-04-30T23:19:20.398Z,99.90
2019-04-30T23:21:52.762Z,99.90
2019-04-30T23:24:25.799Z,99.90
2019-04-30T23:26:59.876Z,99.90
2019-04-30T23:29:32.093Z,99.90
2019-04-30T23:32:04.528Z,99.90
2019-04-30T23:34:37.163Z,99.90
2019-04-30T23:37:10.721Z,99.90
2019-04-30T23:39:43.280Z,99.90
2019-04-30T23:42:16.139Z,99.90
2019-04-30T23:44:49.711Z,99.90
2019-04-30T23:47:23.544Z,99.90
2019-04-30T23:49:56.268Z,99.90
2019-04-30T23:52:28.732Z,99.90
2019-04-30T23:55:01.584Z,99.90
2019-04-30T23:57:34.382Z,99.90
